Terminal Aerodrome Forecast
Issued by NWS

Home | Current Version | Previous Version | Text Only | Print | Product List | Glossary Off
Versions: 1 2 3 4 5 6 7 8 9 10 11 12 13 14 15

000
FTUS43 KUNR 301700
TAFGCC
TAF
KGCC 301720Z 3018/3118 20014KT P6SM SKC
     FM302200 34012KT P6SM SCT080 BKN200
      TEMPO 3100/3102 -TSRA BKN080CB=

USA.gov is the U.S. government's official web portal to all federal, state and local government web resources and services.